createdAt,value
2023-03-10T00:01:32.842Z,48.30
2023-03-10T00:04:03.111Z,47.88
2023-03-10T00:06:35.713Z,48.27
2023-03-10T00:09:05.216Z,47.88
2023-03-10T00:11:34.509Z,47.92
2023-03-10T00:14:03.082Z,48.16
2023-03-10T00:16:32.470Z,47.84
2023-03-10T00:19:01.678Z,47.69
2023-03-10T00:21:32.403Z,47.83
2023-03-10T00:24:02.013Z,47.88
2023-03-10T00:26:31.096Z,47.92
2023-03-10T00:29:00.824Z,48.01
2023-03-10T00:31:32.770Z,47.83
2023-03-10T00:34:02.469Z,47.78
2023-03-10T00:36:32.723Z,48.18
2023-03-10T00:39:02.463Z,47.98
2023-03-10T00:41:36.865Z,47.90
2023-03-10T00:44:07.980Z,47.88
2023-03-10T00:46:39.082Z,47.84
2023-03-10T00:49:10.484Z,47.85
2023-03-10T00:51:39.726Z,47.80
2023-03-10T00:54:10.765Z,47.88
2023-03-10T00:56:40.886Z,48.33
2023-03-10T00:59:12.377Z,48.28
2023-03-10T04:02:07.958Z,52.45
2023-03-10T04:04:37.742Z,52.47
2023-03-10T04:07:07.726Z,52.51
2023-03-10T04:09:39.447Z,52.63
2023-03-10T04:12:10.125Z,52.72
2023-03-10T04:14:39.253Z,52.82
2023-03-10T04:17:09.751Z,52.89
2023-03-10T04:19:41.246Z,52.72
2023-03-10T04:22:11.721Z,52.75
2023-03-10T04:24:41.920Z,52.85
2023-03-10T04:27:12.082Z,52.91
2023-03-10T04:29:42.097Z,52.97
2023-03-10T04:32:11.502Z,52.84
2023-03-10T04:34:42.582Z,53.12
2023-03-10T04:37:12.529Z,52.96
2023-03-10T04:39:41.886Z,52.93
2023-03-10T04:42:11.153Z,53.05
2023-03-10T04:44:40.562Z,53.16
2023-03-10T04:47:10.049Z,53.14
2023-03-10T04:49:40.280Z,53.22
2023-03-10T04:52:14.836Z,53.34
2023-03-10T04:54:44.836Z,53.46
2023-03-10T04:57:13.265Z,53.39
2023-03-10T04:59:42.848Z,53.47
2023-03-10T05:02:12.677Z,53.55
2023-03-10T05:04:42.242Z,53.32
2023-03-10T05:07:12.036Z,53.67
2023-03-10T05:09:47.232Z,53.49
2023-03-10T05:12:16.705Z,53.73
2023-03-10T05:14:45.955Z,53.73
2023-03-10T05:17:15.553Z,53.69
2023-03-10T05:19:45.648Z,53.81
2023-03-10T05:22:14.871Z,53.81
2023-03-10T05:24:44.865Z,53.75
2023-03-10T05:27:15.659Z,53.67
2023-03-10T05:29:45.545Z,53.86
2023-03-10T05:32:20.145Z,54.04
2023-03-10T05:34:49.858Z,53.94
2023-03-10T05:37:19.692Z,54.01
2023-03-10T05:39:49.393Z,54.08
2023-03-10T05:42:21.981Z,54.12
2023-03-10T05:44:51.567Z,54.06
2023-03-10T05:47:20.908Z,54.18
2023-03-10T05:49:50.489Z,54.04
2023-03-10T05:52:19.832Z,54.13
2023-03-10T05:54:49.310Z,54.41
2023-03-10T05:57:17.825Z,54.23
2023-03-10T05:59:46.928Z,54.30
2023-03-10T06:02:15.711Z,54.17
2023-03-10T06:04:44.189Z,54.22
2023-03-10T06:07:12.807Z,54.41
2023-03-10T06:09:42.135Z,54.32
2023-03-10T06:12:10.875Z,54.49
2023-03-10T06:14:39.187Z,54.53
2023-03-10T06:17:08.264Z,54.55
2023-03-10T06:19:37.275Z,54.30
2023-03-10T06:22:06.060Z,54.63
2023-03-10T06:24:37.289Z,54.66
2023-03-10T06:27:06.904Z,54.47
2023-03-10T06:29:35.399Z,54.74
2023-03-10T06:32:05.092Z,54.68
2023-03-10T06:34:34.109Z,54.75
2023-03-10T06:37:03.817Z,54.87
2023-03-10T06:39:33.040Z,55.02
2023-03-10T06:42:01.829Z,55.01
2023-03-10T06:44:30.243Z,54.81
2023-03-10T06:46:58.925Z,55.02
2023-03-10T06:49:31.826Z,55.12
2023-03-10T06:52:00.979Z,54.79
2023-03-10T06:54:29.331Z,55.23
2023-03-10T06:56:57.619Z,54.95
2023-03-10T06:59:26.104Z,55.24
2023-03-10T07:01:54.637Z,55.23
2023-03-10T07:04:22.906Z,55.17
2023-03-10T07:06:51.395Z,55.12
2023-03-10T07:09:19.622Z,55.22
2023-03-10T07:11:48.080Z,55.57
2023-03-10T07:14:16.969Z,55.58
2023-03-10T07:16:47.134Z,55.68
2023-03-10T07:19:16.216Z,55.45
2023-03-10T07:21:45.563Z,55.64
2023-03-10T07:24:14.092Z,55.51
2023-03-10T07:26:43.682Z,55.72
2023-03-10T07:29:12.882Z,56.02
2023-03-10T07:31:44.372Z,56.00
2023-03-10T07:34:12.981Z,55.63
2023-03-10T07:36:41.664Z,55.69
2023-03-10T07:39:10.736Z,55.96
2023-03-10T07:41:39.051Z,55.91
2023-03-10T07:44:07.380Z,56.21
2023-03-10T07:46:35.637Z,56.09
2023-03-10T07:49:07.032Z,55.89
2023-03-10T07:51:35.790Z,56.06
2023-03-10T07:54:04.884Z,56.24
2023-03-10T07:56:33.230Z,56.12
2023-03-10T07:59:01.576Z,56.16
2023-03-10T08:01:29.942Z,56.55
2023-03-10T08:03:58.527Z,56.23
2023-03-10T08:06:29.162Z,56.22
2023-03-10T08:08:58.277Z,56.18
2023-03-10T08:11:27.461Z,56.38
2023-03-10T08:13:56.317Z,56.43
2023-03-10T08:16:25.049Z,56.32
2023-03-10T08:18:54.927Z,56.31
2023-03-10T08:21:23.246Z,56.56
2023-03-10T08:23:51.617Z,56.42
2023-03-10T08:26:20.427Z,56.64
2023-03-10T08:28:49.573Z,56.90
2023-03-10T08:31:20.885Z,56.70
2023-03-10T08:33:50.043Z,56.84
2023-03-10T08:36:21.721Z,56.82
2023-03-10T08:38:52.278Z,57.10
2023-03-10T08:41:54.421Z,57.06
2023-03-10T08:44:22.715Z,56.83
2023-03-10T08:46:51.243Z,57.00
2023-03-10T08:49:21.823Z,57.05
2023-03-10T08:51:50.861Z,56.83
2023-03-10T08:54:21.606Z,57.04
2023-03-10T08:56:51.090Z,56.90
2023-03-10T08:59:19.846Z,57.31
2023-03-10T09:01:49.039Z,57.05
2023-03-10T09:04:18.837Z,57.09
2023-03-10T09:06:47.804Z,57.49
2023-03-10T09:09:17.280Z,57.35
2023-03-10T09:11:46.474Z,57.06
2023-03-10T09:14:17.939Z,57.08
2023-03-10T09:16:47.273Z,57.20
2023-03-10T09:19:16.518Z,57.41
2023-03-10T09:21:45.343Z,57.51
2023-03-10T09:24:14.552Z,57.48
2023-03-10T09:26:44.814Z,57.38
2023-03-10T09:29:14.665Z,57.61
2023-03-10T09:31:44.112Z,57.65
2023-03-10T09:34:13.292Z,57.63
2023-03-10T09:36:42.782Z,57.48
2023-03-10T09:39:11.765Z,57.66
2023-03-10T09:42:29.188Z,57.74
2023-03-10T09:45:31.412Z,57.92
2023-03-10T09:48:07.800Z,57.81
2023-03-10T09:50:48.476Z,57.74
2023-03-10T09:53:44.664Z,57.63
2023-03-10T09:56:20.496Z,57.78
2023-03-10T09:58:54.986Z,57.99
2023-03-10T10:01:28.697Z,57.68
2023-03-10T10:04:20.865Z,57.88
2023-03-10T10:06:51.537Z,58.02
2023-03-10T10:09:28.114Z,58.10
2023-03-10T10:11:57.290Z,58.17
2023-03-10T10:14:31.342Z,58.29
2023-03-10T10:17:35.465Z,58.23
2023-03-10T10:20:21.988Z,58.27
2023-03-10T10:22:51.280Z,58.17
2023-03-10T10:25:25.347Z,58.20
2023-03-10T10:27:56.790Z,58.08
2023-03-10T10:30:41.001Z,58.10
2023-03-10T10:33:12.722Z,58.39
2023-03-10T10:35:59.375Z,58.64
2023-03-10T10:38:31.769Z,58.61
2023-03-10T10:41:07.896Z,58.74
2023-03-10T10:43:45.673Z,58.57
2023-03-10T10:46:23.602Z,58.48
2023-03-10T10:49:18.673Z,58.61
2023-03-10T10:52:01.566Z,58.57
2023-03-10T10:54:41.339Z,58.58
2023-03-10T10:57:19.638Z,58.59
2023-03-10T10:59:48.699Z,58.63
2023-03-10T11:02:31.838Z,58.61
2023-03-10T11:05:12.655Z,58.74
2023-03-10T11:07:42.088Z,58.59
2023-03-10T11:10:33.576Z,58.70
2023-03-10T11:13:15.722Z,58.93
2023-03-10T11:16:03.238Z,59.14
2023-03-10T11:18:39.786Z,58.98
2023-03-10T11:21:23.873Z,58.65
2023-03-10T11:24:12.413Z,58.98
2023-03-10T11:27:09.285Z,58.90
2023-03-10T11:30:13.776Z,59.14
2023-03-10T11:33:12.620Z,59.16
2023-03-10T11:35:46.255Z,59.02
2023-03-10T11:38:19.643Z,59.22
2023-03-10T11:40:55.163Z,59.20
2023-03-10T11:43:31.133Z,59.16
2023-03-10T11:46:09.043Z,59.15
2023-03-10T11:48:57.917Z,59.55
2023-03-10T11:52:08.247Z,59.57
2023-03-10T11:54:46.199Z,59.31
2023-03-10T11:57:21.618Z,59.26
2023-03-10T11:59:55.805Z,59.25
2023-03-10T12:02:34.647Z,59.20
2023-03-10T12:05:16.789Z,59.37
2023-03-10T12:07:49.758Z,59.45
2023-03-10T12:10:22.193Z,59.42
2023-03-10T12:12:54.198Z,59.47
2023-03-10T12:15:33.179Z,59.51
2023-03-10T12:18:04.905Z,59.60
2023-03-10T12:20:35.859Z,59.77
2023-03-10T12:23:11.529Z,59.79
2023-03-10T12:25:40.508Z,59.65
2023-03-10T12:28:15.680Z,59.81
2023-03-10T12:30:53.173Z,59.87
2023-03-10T12:33:31.595Z,59.83
2023-03-10T12:36:15.579Z,59.86
2023-03-10T12:38:44.024Z,59.98
2023-03-10T12:41:34.115Z,59.84
2023-03-10T12:44:22.748Z,59.97
2023-03-10T12:47:09.740Z,60.07
2023-03-10T12:49:41.517Z,60.20
2023-03-10T12:52:29.087Z,60.16
2023-03-10T12:55:17.114Z,60.29
2023-03-10T12:57:50.762Z,60.34
2023-03-10T13:00:31.007Z,60.45
2023-03-10T13:03:30.915Z,60.12
2023-03-10T13:06:05.274Z,60.36
2023-03-10T13:08:41.522Z,60.42
2023-03-10T13:11:18.730Z,60.37
2023-03-10T13:14:04.448Z,60.46
2023-03-10T13:16:33.834Z,60.50
2023-03-10T13:19:04.075Z,60.34
2023-03-10T13:21:35.954Z,60.57
2023-03-10T13:24:30.798Z,60.72
2023-03-10T13:27:19.632Z,60.78
2023-03-10T13:30:13.957Z,60.73
2023-03-10T13:32:43.496Z,60.74
2023-03-10T13:35:21.945Z,60.82
2023-03-10T13:38:29.644Z,60.91
2023-03-10T13:41:02.795Z,61.08
2023-03-10T13:43:36.657Z,61.15
2023-03-10T13:46:27.900Z,61.10
2023-03-10T13:49:04.662Z,61.22
2023-03-10T13:51:38.781Z,61.28
2023-03-10T13:54:37.299Z,61.30
2023-03-10T13:57:17.742Z,61.35
2023-03-10T13:59:48.149Z,61.34
2023-03-10T14:02:33.694Z,61.46
2023-03-10T14:05:04.196Z,61.22
2023-03-10T14:07:36.002Z,61.40
2023-03-10T14:10:11.204Z,61.24
2023-03-10T14:12:42.546Z,61.31
2023-03-10T14:15:20.075Z,61.63
2023-03-10T14:18:17.962Z,61.62
2023-03-10T14:20:50.391Z,61.61
2023-03-10T14:23:19.710Z,61.70
2023-03-10T14:25:53.952Z,61.85
2023-03-10T14:28:29.074Z,61.81
2023-03-10T14:30:59.592Z,61.80
2023-03-10T14:33:29.266Z,61.84
2023-03-10T14:35:58.098Z,61.75
2023-03-10T14:38:27.544Z,61.82
2023-03-10T14:40:56.634Z,62.07
2023-03-10T14:43:28.089Z,61.93
2023-03-10T14:46:00.474Z,62.00
2023-03-10T14:48:35.060Z,62.08
2023-03-10T14:51:03.836Z,62.11
2023-03-10T14:53:34.634Z,61.90
2023-03-10T14:56:04.357Z,62.10
2023-03-10T14:58:39.644Z,62.27
2023-03-10T15:01:08.981Z,62.21
2023-03-10T15:03:38.205Z,62.19
2023-03-10T15:06:10.332Z,62.27
2023-03-10T15:08:40.358Z,62.18
2023-03-10T15:11:10.476Z,62.15
2023-03-10T15:13:40.486Z,62.29
2023-03-10T15:16:14.216Z,62.27
2023-03-10T15:18:43.121Z,62.26
2023-03-10T15:21:15.886Z,62.36
2023-03-10T15:23:44.561Z,62.66
2023-03-10T15:26:13.948Z,62.60
2023-03-10T15:28:42.709Z,62.64
2023-03-10T15:31:11.872Z,62.58
2023-03-10T15:33:40.044Z,62.54
2023-03-10T15:36:09.415Z,62.59
2023-03-10T15:38:39.116Z,62.60
2023-03-10T15:41:07.333Z,62.70
2023-03-10T15:43:36.475Z,62.72
2023-03-10T15:46:08.445Z,62.72
2023-03-10T15:48:37.867Z,62.70
2023-03-10T15:51:11.578Z,63.03
2023-03-10T15:53:40.519Z,63.18
2023-03-10T15:56:11.309Z,63.19
2023-03-10T15:58:39.862Z,63.13
2023-03-10T16:01:10.497Z,63.13
2023-03-10T16:03:39.335Z,63.17
2023-03-10T16:06:10.473Z,62.89
2023-03-10T16:08:40.295Z,62.79
2023-03-10T16:11:18.129Z,63.07
2023-03-10T16:13:49.773Z,63.09
2023-03-10T16:16:20.264Z,63.24
2023-03-10T16:18:49.428Z,63.35
2023-03-10T16:21:18.423Z,63.16
2023-03-10T16:23:47.478Z,63.32
2023-03-10T16:26:19.842Z,63.37
2023-03-10T16:28:52.816Z,63.54
2023-03-10T16:31:24.736Z,63.37
2023-03-10T16:33:55.535Z,63.34
2023-03-10T16:36:28.028Z,63.51
2023-03-10T16:38:58.056Z,63.50
2023-03-10T16:41:29.330Z,63.68
2023-03-10T16:43:59.197Z,63.61
2023-03-10T16:46:30.590Z,63.48
2023-03-10T16:49:01.086Z,63.70
2023-03-10T16:51:38.902Z,63.76
2023-03-10T16:54:11.201Z,63.89
2023-03-10T16:56:43.753Z,63.92
2023-03-10T16:59:18.583Z,63.84
2023-03-10T17:01:48.935Z,63.82
2023-03-10T17:04:18.850Z,63.70
2023-03-10T17:06:49.100Z,63.74
2023-03-10T17:09:19.037Z,63.97
2023-03-10T17:11:53.625Z,63.81
2023-03-10T17:14:25.429Z,63.64
2023-03-10T17:16:55.933Z,63.76
2023-03-10T17:19:30.500Z,63.72
2023-03-10T17:21:59.652Z,63.89
2023-03-10T17:24:28.355Z,64.00
2023-03-10T17:26:57.468Z,64.06
2023-03-10T17:29:26.535Z,64.03
2023-03-10T17:31:55.446Z,64.04
2023-03-10T17:34:25.115Z,64.15
2023-03-10T17:36:54.139Z,63.98
2023-03-10T17:39:24.478Z,64.25
2023-03-10T17:41:54.740Z,64.20
2023-03-10T17:44:23.352Z,64.24
2023-03-10T17:46:52.934Z,64.16
2023-03-10T17:49:21.132Z,64.35
2023-03-10T17:51:49.818Z,64.25
2023-03-10T17:54:21.372Z,64.44
2023-03-10T17:56:50.386Z,64.47
2023-03-10T17:59:20.130Z,64.43
2023-03-10T18:01:49.761Z,64.70
2023-03-10T18:04:19.012Z,64.76
2023-03-10T18:06:47.529Z,64.68
2023-03-10T18:09:16.289Z,64.77
2023-03-10T18:11:45.482Z,64.63
2023-03-10T18:14:14.048Z,64.76
2023-03-10T18:16:43.306Z,64.76
2023-03-10T18:19:13.195Z,64.58
2023-03-10T18:21:42.478Z,64.63
2023-03-10T18:24:12.287Z,64.91
2023-03-10T18:26:43.483Z,64.86
2023-03-10T18:29:13.061Z,64.90
2023-03-10T18:31:42.460Z,64.81
2023-03-10T18:34:11.157Z,64.73
2023-03-10T18:36:39.614Z,65.06
2023-03-10T18:39:08.173Z,64.86
2023-03-10T18:41:36.461Z,65.01
2023-03-10T18:44:05.011Z,64.95
2023-03-10T18:46:33.256Z,64.78
2023-03-10T18:49:01.606Z,64.75
2023-03-10T18:51:30.795Z,64.79
2023-03-10T18:53:59.303Z,65.05
2023-03-10T18:59:19.339Z,64.92
2023-03-10T19:01:47.969Z,64.94
2023-03-10T19:04:16.346Z,65.18
2023-03-10T19:06:44.811Z,65.30
2023-03-10T19:09:15.425Z,65.21
2023-03-10T19:11:44.122Z,65.29
2023-03-10T19:14:14.537Z,65.33
2023-03-10T19:16:46.421Z,65.38
2023-03-10T19:19:15.882Z,65.54
2023-03-10T19:21:46.234Z,65.43
2023-03-10T19:24:16.823Z,65.59
2023-03-10T19:26:48.067Z,65.67
2023-03-10T19:29:18.074Z,65.61
2023-03-10T19:31:48.292Z,65.63
2023-03-10T19:34:19.064Z,65.61
2023-03-10T19:36:48.974Z,65.49
2023-03-10T19:39:19.222Z,65.65
2023-03-10T19:41:52.386Z,65.89
2023-03-10T19:44:25.356Z,65.66
2023-03-10T19:46:56.215Z,65.96
2023-03-10T19:49:26.921Z,66.03
2023-03-10T19:51:56.923Z,65.96
2023-03-10T19:54:27.052Z,65.95
2023-03-10T19:56:56.433Z,66.09
2023-03-10T19:59:26.763Z,66.12
2023-03-10T20:02:03.300Z,66.16
2023-03-10T20:04:35.376Z,66.32
2023-03-10T20:07:05.264Z,66.16
2023-03-10T20:09:36.538Z,66.03
2023-03-10T20:12:06.124Z,66.06
2023-03-10T20:14:35.232Z,66.12
2023-03-10T20:17:03.465Z,66.33
2023-03-10T20:19:32.613Z,66.44
2023-03-10T20:22:01.449Z,66.59
2023-03-10T20:24:30.398Z,66.46
2023-03-10T20:27:03.630Z,66.48
2023-03-10T20:29:33.251Z,66.53
2023-03-10T20:32:04.623Z,66.40
2023-03-10T20:34:34.196Z,66.35
2023-03-10T20:37:06.447Z,66.64
2023-03-10T20:39:38.285Z,66.71
2023-03-10T20:42:08.429Z,66.58
2023-03-10T20:44:39.787Z,66.65
2023-03-10T20:47:09.045Z,66.46
2023-03-10T20:49:37.231Z,66.46
2023-03-10T20:52:05.527Z,66.72
2023-03-10T20:54:34.083Z,66.78
2023-03-10T20:57:02.189Z,66.52
2023-03-10T20:59:30.837Z,66.71
2023-03-10T21:01:59.136Z,66.83
2023-03-10T21:04:28.199Z,66.72
2023-03-10T21:06:56.905Z,66.59
2023-03-10T21:09:25.015Z,66.55
2023-03-10T21:11:53.214Z,66.71
2023-03-10T21:14:22.681Z,67.00
2023-03-10T21:16:52.153Z,67.21
2023-03-10T21:19:21.245Z,67.05
2023-03-10T21:21:50.410Z,66.89
2023-03-10T21:24:19.633Z,66.97
2023-03-10T21:26:48.697Z,66.90
2023-03-10T21:29:17.761Z,67.07
2023-03-10T21:31:46.769Z,66.89
2023-03-10T21:34:16.109Z,66.91
2023-03-10T21:36:45.047Z,67.20
2023-03-10T21:39:14.140Z,67.51
2023-03-10T21:41:43.505Z,67.50
2023-03-10T21:44:12.496Z,67.47
2023-03-10T21:46:41.816Z,67.65
2023-03-10T21:49:10.945Z,67.52
2023-03-10T21:51:39.493Z,67.75
2023-03-10T21:54:08.483Z,67.73
2023-03-10T21:56:36.851Z,67.88
2023-03-10T21:59:05.422Z,67.63
2023-03-10T22:01:33.951Z,67.63
2023-03-10T22:04:02.161Z,67.60
2023-03-10T22:06:31.206Z,67.46
2023-03-10T22:08:59.459Z,67.42
2023-03-10T22:11:27.950Z,67.45
2023-03-10T22:13:56.483Z,67.65
2023-03-10T22:16:25.120Z,67.80
2023-03-10T22:18:54.352Z,67.89
2023-03-10T22:21:22.788Z,67.95
2023-03-10T22:23:51.329Z,67.88
2023-03-10T22:26:20.400Z,67.94
2023-03-10T22:28:48.779Z,67.70
2023-03-10T22:31:18.410Z,67.78
2023-03-10T22:33:47.604Z,67.71
2023-03-10T22:36:19.218Z,68.11
2023-03-10T22:38:48.102Z,68.08
2023-03-10T22:41:16.272Z,67.98
2023-03-10T22:43:45.483Z,68.13
2023-03-10T22:46:16.132Z,68.01
2023-03-10T22:48:44.580Z,67.97
2023-03-10T22:51:17.923Z,68.10
2023-03-10T22:53:47.410Z,67.67
2023-03-10T22:56:16.595Z,67.80
2023-03-10T22:58:45.088Z,67.89
2023-03-10T23:01:14.190Z,67.87
2023-03-10T23:03:43.120Z,68.11
2023-03-10T23:06:13.906Z,68.32
2023-03-10T23:08:44.982Z,68.50
2023-03-10T23:11:15.617Z,68.41
2023-03-10T23:13:46.419Z,68.49
2023-03-10T23:16:14.864Z,68.64
2023-03-10T23:18:45.287Z,68.80
2023-03-10T23:21:14.385Z,68.91
2023-03-10T23:23:48.293Z,68.90
2023-03-10T23:26:17.994Z,68.91
2023-03-10T23:28:46.536Z,69.07
2023-03-10T23:31:17.414Z,69.11
2023-03-10T23:33:46.825Z,69.18
2023-03-10T23:36:16.125Z,69.04
2023-03-10T23:38:44.948Z,68.93
2023-03-10T23:41:14.563Z,69.01
2023-03-10T23:43:43.952Z,69.14
2023-03-10T23:46:13.077Z,69.19
2023-03-10T23:48:42.396Z,69.38
2023-03-10T23:51:15.839Z,69.44
2023-03-10T23:53:45.228Z,69.28
2023-03-10T23:56:14.284Z,69.25
2023-03-10T23:58:46.248Z,69.18
